Time;durP1;ratioP1;P1;durP2;ratioP2;P2;SDS_P1;SDS_P2;PMS_P1;PMS_P2;Temp;Humidity;BMP_temperature;BMP_pressure;BME280_temperature;BME280_humidity;BME280_pressure;Samples;Min_cycle;Max_cycle;Signal;HPM_P1;HPM_P2
2022/08/23 00:01:37;;;;;;;;;0.00;0.00;;;;;;;;4990010;27;46920;-75
2022/08/23 00:04:05;;;;;;;;;0.00;0.00;;;;;;;;4986806;28;45276;-75
2022/08/23 00:06:31;;;;;;;;;1.00;1.00;;;;;;;;4991331;28;45397;-75
2022/08/23 00:08:56;;;;;;;;;0.67;0.67;;;;;;;;4985926;27;45429;-75
2022/08/23 00:11:29;;;;;;;;;0.67;0.67;;;;;;;;4987474;28;45505;-75
2022/08/23 00:13:55;;;;;;;;;0.33;0.33;;;;;;;;4987762;28;45419;-75
2022/08/23 00:16:20;;;;;;;;;1.00;1.00;;;;;;;;4989878;27;45439;-75
2022/08/23 00:18:46;;;;;;;;;2.00;2.00;;;;;;;;4983540;28;47476;-75
2022/08/23 00:21:12;;;;;;;;;2.33;2.00;;;;;;;;4981503;28;45319;-75
2022/08/23 00:23:37;;;;;;;;;1.00;1.00;;;;;;;;4986244;28;45394;-75
2022/08/23 00:26:02;;;;;;;;;3.00;2.00;;;;;;;;4988196;27;45293;-75
2022/08/23 00:28:28;;;;;;;;;1.00;1.00;;;;;;;;4990129;27;45451;-75
2022/08/23 00:30:53;;;;;;;;;1.00;1.00;;;;;;;;4983961;28;46925;-74
2022/08/23 00:33:19;;;;;;;;;3.00;0.00;;;;;;;;4987933;28;45277;-75
2022/08/23 00:35:45;;;;;;;;;0.00;0.00;;;;;;;;4987905;27;45263;-75
2022/08/23 00:38:10;;;;;;;;;1.00;1.00;;;;;;;;4988315;28;45488;-75
2022/08/23 00:40:35;;;;;;;;;0.00;0.00;;;;;;;;4978104;28;45210;-75
2022/08/23 00:48:50;;;;;;;;;0.67;0.67;;;;;;;;4977181;28;45483;-75
2022/08/23 00:51:20;;;;;;;;;1.00;1.00;;;;;;;;4990703;28;48433;-75
2022/08/23 00:53:47;;;;;;;;;1.67;1.67;;;;;;;;4984028;28;45434;-75
2022/08/23 00:56:14;;;;;;;;;2.00;1.67;;;;;;;;4985703;28;45413;-75
2022/08/23 00:58:39;;;;;;;;;1.67;0.67;;;;;;;;4981966;28;45343;-75
2022/08/23 01:01:05;;;;;;;;;1.67;1.67;;;;;;;;4988544;28;46175;-75
2022/08/23 01:03:32;;;;;;;;;3.33;3.00;;;;;;;;4981290;28;44679;-75
2022/08/23 01:06:02;;;;;;;;;3.67;2.00;;;;;;;;4990332;28;45316;-74
2022/08/23 01:08:29;;;;;;;;;2.00;2.00;;;;;;;;4984478;27;45483;-75
2022/08/23 01:10:59;;;;;;;;;1.67;1.67;;;;;;;;4987534;27;46089;-75
2022/08/23 01:13:28;;;;;;;;;4.00;2.67;;;;;;;;4983504;28;45389;-75
2022/08/23 01:16:00;;;;;;;;;3.33;2.00;;;;;;;;4988161;27;45446;-75
2022/08/23 01:18:26;;;;;;;;;1.67;1.67;;;;;;;;4992900;27;46882;-74
2022/08/23 01:21:05;;;;;;;;;3.00;3.00;;;;;;;;4984975;28;45358;-74
2022/08/23 01:23:42;;;;;;;;;3.00;3.00;;;;;;;;4990634;27;45426;-74
2022/08/23 01:26:08;;;;;;;;;0.67;0.67;;;;;;;;4991854;27;45356;-75
2022/08/23 01:28:33;;;;;;;;;1.33;1.33;;;;;;;;4997515;27;45749;-75
2022/08/23 01:30:59;;;;;;;;;1.67;1.67;;;;;;;;4992775;28;46445;-75
2022/08/23 01:33:25;;;;;;;;;2.67;1.67;;;;;;;;4993752;28;45736;-75
2022/08/23 01:35:52;;;;;;;;;1.00;1.00;;;;;;;;5001541;27;45276;-75
2022/08/23 01:38:18;;;;;;;;;5.00;2.00;;;;;;;;4989496;27;45459;-75
2022/08/23 01:40:43;;;;;;;;;2.67;2.67;;;;;;;;4984408;27;46048;-75
2022/08/23 01:43:09;;;;;;;;;6.33;6.00;;;;;;;;4989193;27;45398;-75
2022/08/23 01:45:34;;;;;;;;;3.67;2.00;;;;;;;;4987028;27;45257;-75
2022/08/23 01:48:00;;;;;;;;;1.33;1.00;;;;;;;;4983781;27;45410;-75
2022/08/23 01:50:26;;;;;;;;;3.00;1.33;;;;;;;;4983383;27;46444;-75
2022/08/23 01:52:51;;;;;;;;;2.33;2.33;;;;;;;;4986471;27;45764;-75
2022/08/23 01:55:17;;;;;;;;;2.67;1.67;;;;;;;;4988274;28;45375;-75
2022/08/23 01:57:43;;;;;;;;;2.67;2.67;;;;;;;;4989870;28;45463;-75
2022/08/23 02:00:09;;;;;;;;;1.33;1.33;;;;;;;;4986070;27;45423;-75
2022/08/23 02:02:36;;;;;;;;;2.00;0.67;;;;;;;;4990304;27;45362;-75
2022/08/23 02:05:01;;;;;;;;;2.00;1.00;;;;;;;;4991433;27;45383;-75
2022/08/23 02:07:27;;;;;;;;;1.00;1.00;;;;;;;;4993900;27;45420;-75
2022/08/23 02:09:53;;;;;;;;;1.33;1.33;;;;;;;;4981649;27;45445;-75
2022/08/23 02:12:18;;;;;;;;;1.67;1.67;;;;;;;;4991669;27;45323;-75
2022/08/23 02:14:43;;;;;;;;;1.00;1.00;;;;;;;;4985444;27;45421;-75
2022/08/23 02:17:08;;;;;;;;;4.00;2.33;;;;;;;;4993722;28;45464;-75
2022/08/23 02:19:34;;;;;;;;;3.00;1.00;;;;;;;;4989882;27;45415;-75
2022/08/23 02:22:00;;;;;;;;;1.00;0.67;;;;;;;;4996075;27;45410;-75
2022/08/23 02:24:25;;;;;;;;;2.00;2.00;;;;;;;;4986091;27;45445;-75
2022/08/23 02:26:52;;;;;;;;;2.33;1.33;;;;;;;;4995861;27;45381;-75
2022/08/23 02:29:19;;;;;;;;;1.67;1.67;;;;;;;;4986202;27;45371;-75
2022/08/23 02:31:44;;;;;;;;;2.00;2.00;;;;;;;;4978995;27;45263;-75
2022/08/23 02:34:10;;;;;;;;;2.67;2.67;;;;;;;;5012414;27;45413;-75
2022/08/23 02:36:36;;;;;;;;;1.00;1.00;;;;;;;;4982177;27;45514;-75
2022/08/23 02:39:03;;;;;;;;;3.00;1.33;;;;;;;;4979692;27;45467;-75
2022/08/23 02:41:28;;;;;;;;;1.00;1.00;;;;;;;;4991494;27;45572;-75
2022/08/23 02:43:54;;;;;;;;;1.00;1.00;;;;;;;;4982461;28;45478;-75
2022/08/23 02:46:20;;;;;;;;;2.00;2.00;;;;;;;;4987533;27;45607;-75
2022/08/23 02:48:45;;;;;;;;;0.67;0.67;;;;;;;;4980868;28;45444;-75
2022/08/23 02:51:10;;;;;;;;;0.67;0.67;;;;;;;;4988985;27;45370;-75
2022/08/23 02:53:37;;;;;;;;;1.00;1.00;;;;;;;;4986945;27;45217;-75
2022/08/23 02:56:02;;;;;;;;;1.67;0.67;;;;;;;;4988793;27;45375;-75
2022/08/23 02:58:28;;;;;;;;;1.00;1.00;;;;;;;;4989158;27;45591;-75
2022/08/23 03:00:53;;;;;;;;;0.33;0.33;;;;;;;;4993886;27;45339;-75
2022/08/23 03:03:20;;;;;;;;;2.00;1.00;;;;;;;;4987667;27;45213;-75
2022/08/23 03:05:45;;;;;;;;;1.00;1.00;;;;;;;;4990854;27;45275;-75
2022/08/23 03:08:10;;;;;;;;;1.00;1.00;;;;;;;;4982778;28;45420;-75
2022/08/23 03:10:37;;;;;;;;;0.67;0.67;;;;;;;;4987623;27;45441;-75
2022/08/23 03:13:02;;;;;;;;;0.00;0.00;;;;;;;;4986721;27;45355;-75
2022/08/23 03:15:28;;;;;;;;;0.33;0.33;;;;;;;;4994638;28;45915;-75
2022/08/23 03:17:53;;;;;;;;;1.00;1.00;;;;;;;;4988798;27;45370;-75
2022/08/23 03:20:18;;;;;;;;;2.00;2.00;;;;;;;;4995508;28;45905;-75
2022/08/23 03:22:44;;;;;;;;;1.00;1.00;;;;;;;;4992714;28;45974;-75
2022/08/23 03:25:09;;;;;;;;;1.00;1.00;;;;;;;;4988018;28;45344;-75
2022/08/23 03:27:34;;;;;;;;;0.75;0.75;;;;;;;;4992942;27;45611;-75
2022/08/23 03:29:59;;;;;;;;;1.67;0.00;;;;;;;;4982781;27;45310;-75
2022/08/23 03:32:25;;;;;;;;;2.00;1.00;;;;;;;;4987175;27;45652;-75
2022/08/23 03:34:51;;;;;;;;;0.00;0.00;;;;;;;;5015910;27;45275;-75
2022/08/23 03:37:16;;;;;;;;;1.00;1.00;;;;;;;;4991900;27;45597;-75
2022/08/23 03:39:42;;;;;;;;;1.67;1.00;;;;;;;;4983227;28;45225;-75
2022/08/23 03:42:07;;;;;;;;;1.00;1.00;;;;;;;;4988882;28;45389;-75
2022/08/23 03:44:32;;;;;;;;;1.00;1.00;;;;;;;;4982865;27;45589;-75
2022/08/23 03:46:58;;;;;;;;;0.67;0.67;;;;;;;;4989351;28;46290;-75
2022/08/23 03:49:23;;;;;;;;;2.00;2.00;;;;;;;;4984475;27;45383;-75
2022/08/23 03:51:48;;;;;;;;;2.33;1.33;;;;;;;;4976874;28;45439;-75
2022/08/23 03:54:13;;;;;;;;;1.00;1.00;;;;;;;;4985466;27;45641;-73
2022/08/23 03:56:48;;;;;;;;;2.00;2.00;;;;;;;;4986600;28;47233;-75
2022/08/23 03:59:13;;;;;;;;;1.67;1.67;;;;;;;;4986770;28;45383;-75
2022/08/23 04:01:38;;;;;;;;;2.00;2.00;;;;;;;;4987419;28;45419;-75
2022/08/23 04:04:04;;;;;;;;;2.00;2.00;;;;;;;;4987305;27;45417;-75
2022/08/23 04:06:30;;;;;;;;;2.00;2.00;;;;;;;;4984241;28;45212;-75
2022/08/23 04:08:55;;;;;;;;;1.00;1.00;;;;;;;;4982418;28;45421;-75
2022/08/23 04:11:22;;;;;;;;;1.67;1.67;;;;;;;;4986574;27;45286;-75
2022/08/23 04:13:47;;;;;;;;;1.67;1.67;;;;;;;;4990466;27;45565;-75
2022/08/23 04:16:13;;;;;;;;;0.67;0.67;;;;;;;;4994145;28;45306;-75
2022/08/23 04:18:38;;;;;;;;;1.00;1.00;;;;;;;;4988868;27;45596;-75
2022/08/23 04:21:06;;;;;;;;;1.00;1.00;;;;;;;;4982265;28;45295;-76
2022/08/23 04:23:31;;;;;;;;;2.00;2.00;;;;;;;;4990333;28;45596;-75
2022/08/23 04:25:56;;;;;;;;;2.67;1.67;;;;;;;;4988904;28;45291;-76
2022/08/23 04:28:22;;;;;;;;;3.33;1.00;;;;;;;;4987603;27;45451;-76
2022/08/23 04:30:48;;;;;;;;;3.00;1.33;;;;;;;;4987520;28;45364;-76
2022/08/23 04:33:13;;;;;;;;;1.33;1.33;;;;;;;;4981061;28;45752;-76
2022/08/23 04:35:40;;;;;;;;;3.00;2.00;;;;;;;;5005314;27;46033;-75
2022/08/23 04:38:05;;;;;;;;;2.00;2.00;;;;;;;;4980898;28;45495;-74
2022/08/23 04:43:15;;;;;;;;;1.67;1.67;;;;;;;;4977920;28;45469;-76
2022/08/23 04:45:40;;;;;;;;;2.00;2.00;;;;;;;;4980206;28;48511;-76
2022/08/23 04:48:07;;;;;;;;;0.67;0.67;;;;;;;;4989970;27;45371;-76
2022/08/23 04:50:32;;;;;;;;;3.67;2.67;;;;;;;;4984889;27;45307;-75
2022/08/23 04:52:58;;;;;;;;;3.00;2.00;;;;;;;;4991861;28;45520;-75
2022/08/23 04:55:23;;;;;;;;;3.00;2.00;;;;;;;;4988276;27;45380;-75
2022/08/23 04:57:49;;;;;;;;;2.33;2.33;;;;;;;;4994060;27;45433;-75
2022/08/23 05:00:15;;;;;;;;;3.67;2.33;;;;;;;;4985644;27;45493;-75
2022/08/23 05:02:40;;;;;;;;;1.33;1.33;;;;;;;;4985490;27;45394;-76
2022/08/23 05:05:06;;;;;;;;;2.67;1.67;;;;;;;;4991250;27;48087;-75
2022/08/23 05:07:32;;;;;;;;;2.00;2.00;;;;;;;;4995842;27;45375;-75
2022/08/23 05:09:57;;;;;;;;;2.00;2.00;;;;;;;;4982421;27;45284;-76
2022/08/23 05:12:22;;;;;;;;;4.00;2.00;;;;;;;;4995233;28;45402;-75
2022/08/23 05:14:48;;;;;;;;;1.67;1.67;;;;;;;;4984081;27;45335;-75
2022/08/23 05:17:13;;;;;;;;;2.67;2.67;;;;;;;;4990217;27;45196;-75
2022/08/23 05:19:38;;;;;;;;;1.67;1.67;;;;;;;;4988003;27;45485;-74
2022/08/23 05:22:03;;;;;;;;;2.67;2.00;;;;;;;;4991645;28;45467;-74
2022/08/23 05:24:28;;;;;;;;;2.33;2.00;;;;;;;;4984574;28;45530;-74
2022/08/23 05:26:54;;;;;;;;;1.67;1.67;;;;;;;;4993340;27;45335;-76
2022/08/23 05:29:20;;;;;;;;;2.00;2.00;;;;;;;;4979904;27;45323;-76
2022/08/23 05:31:45;;;;;;;;;1.00;1.00;;;;;;;;4984113;28;45372;-75
2022/08/23 05:34:10;;;;;;;;;0.67;0.67;;;;;;;;5014475;27;48263;-76
2022/08/23 05:36:36;;;;;;;;;1.67;1.67;;;;;;;;4996489;27;45303;-75
2022/08/23 05:39:01;;;;;;;;;1.67;1.67;;;;;;;;4995456;28;45450;-75
2022/08/23 05:41:27;;;;;;;;;5.33;2.67;;;;;;;;4983645;27;45482;-75
2022/08/23 05:43:52;;;;;;;;;3.00;3.00;;;;;;;;4978530;28;45630;-75
2022/08/23 05:46:18;;;;;;;;;1.33;1.33;;;;;;;;4987092;27;45434;-75
2022/08/23 05:48:47;;;;;;;;;3.00;3.00;;;;;;;;4981441;28;45478;-74
2022/08/23 05:51:13;;;;;;;;;3.67;2.67;;;;;;;;4985488;28;45466;-74
2022/08/23 05:53:38;;;;;;;;;1.00;1.00;;;;;;;;4982753;28;45915;-74
2022/08/23 05:56:27;;;;;;;;;4.00;2.00;;;;;;;;4993750;27;45311;-73
2022/08/23 05:58:54;;;;;;;;;3.00;2.67;;;;;;;;4984327;28;45442;-73
2022/08/23 06:01:20;;;;;;;;;2.00;2.00;;;;;;;;4991130;27;45699;-73
2022/08/23 06:03:45;;;;;;;;;2.00;1.67;;;;;;;;4990985;27;48314;-73
2022/08/23 06:06:11;;;;;;;;;2.67;2.67;;;;;;;;4996315;27;45494;-73
2022/08/23 06:08:38;;;;;;;;;2.00;2.00;;;;;;;;4987461;27;45422;-72
2022/08/23 06:11:11;;;;;;;;;4.67;3.33;;;;;;;;4990708;28;45401;-72
2022/08/23 06:13:42;;;;;;;;;2.00;2.00;;;;;;;;4988812;28;46192;-73
2022/08/23 06:16:07;;;;;;;;;2.67;2.67;;;;;;;;4990789;27;45421;-73
2022/08/23 06:18:33;;;;;;;;;3.33;2.33;;;;;;;;4985091;27;45532;-72
2022/08/23 06:20:59;;;;;;;;;2.67;2.00;;;;;;;;4980884;28;45316;-73
2022/08/23 06:23:25;;;;;;;;;2.67;2.67;;;;;;;;4985644;28;46034;-73
2022/08/23 06:25:50;;;;;;;;;0.00;0.00;;;;;;;;4982087;27;45279;-73
2022/08/23 06:28:16;;;;;;;;;2.00;2.00;;;;;;;;4985038;27;45401;-73
2022/08/23 06:30:41;;;;;;;;;3.67;3.67;;;;;;;;4978796;28;45593;-73
2022/08/23 06:33:06;;;;;;;;;3.00;3.00;;;;;;;;4990892;27;45547;-72
2022/08/23 06:35:32;;;;;;;;;2.33;2.33;;;;;;;;4990796;27;45417;-75
2022/08/23 06:37:57;;;;;;;;;4.67;3.00;;;;;;;;4994447;27;45568;-75
2022/08/23 06:40:22;;;;;;;;;2.00;2.00;;;;;;;;4983420;28;45338;-73
2022/08/23 06:42:48;;;;;;;;;3.00;3.00;;;;;;;;4982029;27;45297;-73
2022/08/23 06:45:13;;;;;;;;;5.67;4.00;;;;;;;;4993916;28;45362;-73
2022/08/23 06:47:39;;;;;;;;;3.67;3.67;;;;;;;;4993969;27;45210;-74
2022/08/23 06:50:04;;;;;;;;;3.67;3.67;;;;;;;;4993301;27;46220;-74
2022/08/23 06:52:29;;;;;;;;;2.00;2.00;;;;;;;;4994503;28;45211;-74
2022/08/23 06:54:55;;;;;;;;;4.00;4.00;;;;;;;;4986166;27;45363;-75
2022/08/23 06:57:20;;;;;;;;;2.00;2.00;;;;;;;;4984229;27;45166;-74
2022/08/23 06:59:46;;;;;;;;;2.33;2.33;;;;;;;;4983847;28;45492;-73
2022/08/23 07:02:13;;;;;;;;;3.33;2.00;;;;;;;;4988428;27;46345;-74
2022/08/23 07:04:39;;;;;;;;;4.33;3.00;;;;;;;;4980737;28;45341;-73
2022/08/23 07:07:04;;;;;;;;;3.00;3.00;;;;;;;;4990635;27;45271;-73
2022/08/23 07:09:30;;;;;;;;;3.00;3.00;;;;;;;;4980591;27;45386;-73
2022/08/23 07:11:55;;;;;;;;;4.00;3.00;;;;;;;;4993440;28;46824;-72
2022/08/23 07:14:21;;;;;;;;;4.75;3.00;;;;;;;;4991784;28;45296;-72
2022/08/23 07:16:54;;;;;;;;;3.00;3.00;;;;;;;;4995731;28;45454;-74
2022/08/23 07:19:21;;;;;;;;;3.00;3.00;;;;;;;;4995281;27;46149;-74
2022/08/23 07:21:46;;;;;;;;;5.50;3.00;;;;;;;;4990531;27;46321;-70
2022/08/23 07:24:14;;;;;;;;;3.00;3.00;;;;;;;;4983349;28;45169;-70
2022/08/23 07:26:40;;;;;;;;;3.75;3.00;;;;;;;;4989386;28;45362;-70
2022/08/23 07:29:06;;;;;;;;;3.25;2.25;;;;;;;;4998707;27;45933;-70
2022/08/23 07:31:33;;;;;;;;;4.00;2.25;;;;;;;;4982746;28;46758;-71
2022/08/23 07:34:00;;;;;;;;;5.00;3.00;;;;;;;;5004643;27;45359;-71
2022/08/23 07:36:26;;;;;;;;;1.25;1.00;;;;;;;;4988539;27;45357;-70
2022/08/23 07:38:52;;;;;;;;;2.00;1.00;;;;;;;;4977622;28;45275;-71
2022/08/23 07:41:17;;;;;;;;;2.25;2.25;;;;;;;;4983354;27;45225;-72
2022/08/23 07:43:42;;;;;;;;;2.00;2.00;;;;;;;;4978551;27;45329;-70
2022/08/23 07:46:08;;;;;;;;;3.25;3.00;;;;;;;;4986637;28;45499;-74
2022/08/23 07:48:34;;;;;;;;;1.75;1.75;;;;;;;;4980779;27;46085;-74
2022/08/23 07:51:04;;;;;;;;;1.50;1.50;;;;;;;;4986288;27;45278;-74
2022/08/23 07:53:29;;;;;;;;;1.00;1.00;;;;;;;;4992388;27;45522;-74
2022/08/23 07:55:55;;;;;;;;;3.00;1.75;;;;;;;;4991689;28;45251;-70
2022/08/23 07:58:21;;;;;;;;;3.25;2.00;;;;;;;;4988417;28;45431;-69
2022/08/23 08:00:46;;;;;;;;;1.25;1.25;;;;;;;;4990456;28;46602;-69
2022/08/23 08:03:12;;;;;;;;;3.75;2.00;;;;;;;;4982155;27;45479;-69
2022/08/23 08:05:38;;;;;;;;;2.25;2.25;;;;;;;;4983183;28;45511;-70
2022/08/23 08:08:04;;;;;;;;;2.25;2.25;;;;;;;;4987106;28;45556;-69
2022/08/23 08:10:29;;;;;;;;;2.50;2.50;;;;;;;;4983865;28;45910;-72
2022/08/23 08:12:55;;;;;;;;;1.25;1.25;;;;;;;;4991005;28;45408;-72
2022/08/23 08:15:21;;;;;;;;;4.00;2.25;;;;;;;;4985611;28;45554;-72
2022/08/23 08:17:47;;;;;;;;;1.75;1.75;;;;;;;;4994129;28;45404;-72
2022/08/23 08:20:12;;;;;;;;;1.50;1.50;;;;;;;;4978595;27;45350;-71
2022/08/23 08:22:38;;;;;;;;;2.50;2.00;;;;;;;;4979785;28;45422;-69
2022/08/23 08:25:03;;;;;;;;;24.75;21.00;;;;;;;;4978877;27;45425;-72
2022/08/23 08:27:29;;;;;;;;;2.00;0.50;;;;;;;;4988151;28;45252;-70
2022/08/23 08:29:54;;;;;;;;;2.00;2.00;;;;;;;;4979217;27;45882;-71
2022/08/23 08:32:19;;;;;;;;;5.00;3.25;;;;;;;;4982075;28;45428;-71
2022/08/23 08:34:44;;;;;;;;;1.75;1.25;;;;;;;;5009295;27;45307;-70
2022/08/23 08:37:10;;;;;;;;;3.00;2.00;;;;;;;;4987011;27;45324;-70
2022/08/23 08:39:35;;;;;;;;;2.50;2.50;;;;;;;;4986138;27;45997;-70
2022/08/23 08:42:06;;;;;;;;;3.00;1.00;;;;;;;;4989310;27;45289;-70
2022/08/23 08:45:01;;;;;;;;;2.25;2.25;;;;;;;;4986198;28;45490;-70
2022/08/23 08:47:45;;;;;;;;;2.00;2.00;;;;;;;;4981748;28;45452;-70
2022/08/23 08:50:23;;;;;;;;;1.60;1.60;;;;;;;;4984300;28;45453;-70
2022/08/23 08:52:53;;;;;;;;;1.40;1.40;;;;;;;;4980755;28;45433;-70
2022/08/23 08:55:27;;;;;;;;;2.40;2.00;;;;;;;;4984262;28;45271;-70
2022/08/23 08:57:53;;;;;;;;;2.25;2.25;;;;;;;;4991818;28;45228;-71
2022/08/23 09:00:26;;;;;;;;;2.00;1.80;;;;;;;;4983924;28;46284;-70
2022/08/23 09:02:54;;;;;;;;;2.60;2.60;;;;;;;;4978061;28;45430;-70
2022/08/23 09:05:25;;;;;;;;;4.50;2.00;;;;;;;;4978639;28;45312;-70
2022/08/23 09:08:06;;;;;;;;;2.20;2.20;;;;;;;;4980789;27;46096;-72
2022/08/23 09:10:31;;;;;;;;;6.00;2.80;;;;;;;;4989858;27;46801;-71
2022/08/23 09:13:15;;;;;;;;;3.00;3.00;;;;;;;;4990973;28;45631;-71
2022/08/23 09:15:51;;;;;;;;;2.00;1.20;;;;;;;;4989932;28;45438;-71
2022/08/23 09:18:16;;;;;;;;;2.00;2.00;;;;;;;;4991675;28;45529;-70
2022/08/23 09:20:42;;;;;;;;;3.50;2.50;;;;;;;;4991004;28;45316;-70
2022/08/23 09:23:11;;;;;;;;;4.00;4.00;;;;;;;;4988609;28;45291;-71
2022/08/23 09:25:36;;;;;;;;;3.80;2.80;;;;;;;;4991501;27;45407;-70
2022/08/23 09:28:01;;;;;;;;;2.50;2.50;;;;;;;;4990858;28;45503;-70
2022/08/23 09:30:56;;;;;;;;;2.00;2.00;;;;;;;;4982620;27;45423;-70
2022/08/23 09:33:23;;;;;;;;;2.80;2.80;;;;;;;;4973098;28;45544;-71
2022/08/23 09:36:14;;;;;;;;;1.80;1.80;;;;;;;;5009019;27;45351;-71
2022/08/23 09:38:51;;;;;;;;;4.25;3.75;;;;;;;;4981533;28;45712;-71
2022/08/23 09:41:21;;;;;;;;;1.20;1.20;;;;;;;;4987450;27;45580;-71
2022/08/23 09:43:48;;;;;;;;;2.00;2.00;;;;;;;;4988332;28;45735;-71
2022/08/23 09:46:23;;;;;;;;;2.80;2.80;;;;;;;;4987769;27;45361;-70
2022/08/23 09:48:48;;;;;;;;;2.60;2.60;;;;;;;;4984209;28;45513;-71
2022/08/23 09:51:23;;;;;;;;;2.75;2.75;;;;;;;;4987306;28;45303;-71
2022/08/23 09:53:50;;;;;;;;;3.40;3.40;;;;;;;;4985273;28;45294;-72
2022/08/23 09:56:18;;;;;;;;;1.40;1.40;;;;;;;;4986609;28;45288;-71
2022/08/23 09:58:45;;;;;;;;;4.80;3.80;;;;;;;;4985807;28;45395;-71
2022/08/23 10:01:24;;;;;;;;;4.80;3.00;;;;;;;;4992277;28;45627;-71
2022/08/23 10:04:05;;;;;;;;;3.00;3.00;;;;;;;;4996028;27;45359;-71
2022/08/23 10:06:33;;;;;;;;;2.40;2.40;;;;;;;;4990366;28;45363;-71
2022/08/23 10:09:03;;;;;;;;;2.60;2.60;;;;;;;;4984952;27;45374;-71
2022/08/23 10:11:30;;;;;;;;;1.20;1.20;;;;;;;;4990969;28;45973;-72
2022/08/23 10:13:56;;;;;;;;;3.00;3.00;;;;;;;;4986429;28;45693;-73
2022/08/23 10:16:24;;;;;;;;;2.25;2.25;;;;;;;;4988323;27;45361;-72
2022/08/23 10:18:54;;;;;;;;;3.20;3.20;;;;;;;;4983083;27;45297;-73
2022/08/23 10:21:42;;;;;;;;;1.20;1.20;;;;;;;;4991435;28;45218;-73
2022/08/23 10:24:27;;;;;;;;;2.60;2.20;;;;;;;;4977618;27;45334;-72
2022/08/23 10:30:22;;;;;;;;;1.80;1.80;;;;;;;;4981327;28;45237;-73
2022/08/23 10:32:47;;;;;;;;;2.60;1.00;;;;;;;;4981083;27;45395;-73
2022/08/23 10:35:24;;;;;;;;;2.00;2.00;;;;;;;;5008387;27;45402;-73
2022/08/23 10:37:56;;;;;;;;;1.60;1.00;;;;;;;;4984687;28;45581;-73
2022/08/23 10:40:22;;;;;;;;;1.80;1.80;;;;;;;;4983982;28;45237;-73
2022/08/23 10:42:57;;;;;;;;;1.50;1.50;;;;;;;;4987790;27;47958;-73
2022/08/23 10:45:25;;;;;;;;;2.00;2.00;;;;;;;;4987418;28;45396;-73
2022/08/23 10:48:00;;;;;;;;;1.80;1.20;;;;;;;;4989764;28;45567;-73
2022/08/23 10:50:26;;;;;;;;;0.40;0.20;;;;;;;;4983498;27;45620;-74
2022/08/23 10:53:10;;;;;;;;;1.20;1.20;;;;;;;;4992820;27;46205;-72
2022/08/23 10:55:53;;;;;;;;;1.00;1.00;;;;;;;;4982959;28;45269;-72
2022/08/23 10:58:21;;;;;;;;;0.40;0.40;;;;;;;;4986319;28;45368;-72
2022/08/23 11:00:48;;;;;;;;;0.00;0.00;;;;;;;;4988757;27;45452;-73
2022/08/23 11:03:31;;;;;;;;;1.40;0.40;;;;;;;;4986322;28;45334;-73
2022/08/23 11:06:16;;;;;;;;;0.20;0.20;;;;;;;;4983548;27;45566;-72
2022/08/23 11:08:45;;;;;;;;;0.80;0.80;;;;;;;;4987371;27;45599;-72
2022/08/23 11:11:30;;;;;;;;;1.20;1.20;;;;;;;;4985628;28;45481;-72
2022/08/23 11:13:55;;;;;;;;;2.00;1.00;;;;;;;;4980966;27;45393;-73
2022/08/23 11:16:24;;;;;;;;;0.00;0.00;;;;;;;;4995211;28;45328;-72
2022/08/23 11:18:49;;;;;;;;;0.40;0.20;;;;;;;;4992171;28;45529;-72
2022/08/23 11:21:18;;;;;;;;;0.00;0.00;;;;;;;;4993831;27;45493;-72
2022/08/23 11:23:46;;;;;;;;;0.20;0.20;;;;;;;;4986069;27;45380;-72
2022/08/23 11:26:21;;;;;;;;;1.00;0.60;;;;;;;;4978466;28;45525;-72
2022/08/23 11:28:46;;;;;;;;;1.60;0.20;;;;;;;;4986594;27;45421;-73
2022/08/23 11:31:20;;;;;;;;;0.50;0.50;;;;;;;;4981568;28;45300;-72
2022/08/23 11:34:05;;;;;;;;;0.20;0.20;;;;;;;;4985775;27;45374;-72
2022/08/23 11:36:32;;;;;;;;;0.20;0.20;;;;;;;;4986291;27;45303;-73
2022/08/23 11:38:57;;;;;;;;;0.80;0.80;;;;;;;;4980196;28;45373;-73
2022/08/23 11:41:27;;;;;;;;;0.00;0.00;;;;;;;;4994242;28;45529;-74
2022/08/23 11:43:55;;;;;;;;;0.00;0.00;;;;;;;;4989491;27;45359;-71
2022/08/23 11:46:31;;;;;;;;;0.20;0.20;;;;;;;;4994204;28;45410;-72
2022/08/23 11:49:02;;;;;;;;;0.20;0.20;;;;;;;;4994628;28;45348;-71
2022/08/23 11:51:30;;;;;;;;;0.20;0.20;;;;;;;;4988196;27;45492;-73
2022/08/23 11:53:59;;;;;;;;;0.60;0.60;;;;;;;;4986215;28;45503;-72
2022/08/23 11:56:40;;;;;;;;;0.20;0.20;;;;;;;;4995290;28;45502;-73
2022/08/23 11:59:18;;;;;;;;;0.00;0.00;;;;;;;;4989932;28;45443;-73
2022/08/23 12:01:45;;;;;;;;;0.00;0.00;;;;;;;;4995316;28;45553;-73
2022/08/23 12:04:25;;;;;;;;;0.40;0.40;;;;;;;;4990765;28;45346;-73
2022/08/23 12:06:54;;;;;;;;;0.20;0.20;;;;;;;;4995017;28;45429;-72
2022/08/23 12:09:22;;;;;;;;;0.20;0.20;;;;;;;;4981260;28;45232;-74
2022/08/23 12:11:54;;;;;;;;;1.00;1.00;;;;;;;;4992102;27;46924;-74
2022/08/23 12:14:31;;;;;;;;;0.20;0.20;;;;;;;;4983549;28;45347;-74
2022/08/23 12:17:01;;;;;;;;;0.20;0.20;;;;;;;;4994007;28;45352;-73
2022/08/23 12:19:36;;;;;;;;;0.60;0.60;;;;;;;;4990345;28;45366;-74
2022/08/23 12:22:08;;;;;;;;;0.40;0.40;;;;;;;;4994083;28;45617;-74
2022/08/23 12:24:41;;;;;;;;;0.20;0.20;;;;;;;;4989687;28;45561;-74
2022/08/23 12:27:25;;;;;;;;;0.80;0.80;;;;;;;;4992439;28;45483;-73
2022/08/23 12:29:58;;;;;;;;;0.40;0.40;;;;;;;;4985042;28;45235;-74
2022/08/23 12:32:29;;;;;;;;;0.00;0.00;;;;;;;;4977756;28;45527;-74
2022/08/23 12:34:55;;;;;;;;;0.60;0.60;;;;;;;;4995718;27;46158;-74
2022/08/23 12:37:25;;;;;;;;;0.00;0.00;;;;;;;;4992373;27;45699;-74
2022/08/23 12:39:56;;;;;;;;;0.00;0.00;;;;;;;;4986808;28;45435;-74
2022/08/23 12:42:26;;;;;;;;;0.00;0.00;;;;;;;;5002305;27;45457;-74
2022/08/23 12:45:12;;;;;;;;;0.00;0.00;;;;;;;;4985647;28;45641;-74
2022/08/23 12:47:41;;;;;;;;;0.00;0.00;;;;;;;;4988345;28;45725;-74
2022/08/23 12:50:12;;;;;;;;;0.20;0.20;;;;;;;;4985636;27;45342;-74
2022/08/23 12:52:37;;;;;;;;;0.20;0.20;;;;;;;;4992636;28;45324;-74
2022/08/23 12:55:12;;;;;;;;;1.00;0.50;;;;;;;;4992534;28;47160;-74
2022/08/23 12:57:38;;;;;;;;;0.60;0.00;;;;;;;;4992826;27;45762;-74
2022/08/23 13:00:13;;;;;;;;;1.00;0.00;;;;;;;;4984822;28;45749;-74
2022/08/23 13:02:41;;;;;;;;;0.00;0.00;;;;;;;;4992712;28;45599;-74
2022/08/23 13:05:18;;;;;;;;;0.20;0.20;;;;;;;;4983867;27;45558;-74
2022/08/23 13:07:43;;;;;;;;;0.20;0.20;;;;;;;;4991795;27;45274;-74
2022/08/23 13:10:09;;;;;;;;;1.50;0.00;;;;;;;;4993477;28;45302;-74
2022/08/23 13:12:35;;;;;;;;;2.00;2.00;;;;;;;;4994754;28;46062;-74
2022/08/23 13:15:03;;;;;;;;;0.00;0.00;;;;;;;;4985179;27;45284;-74
2022/08/23 13:17:41;;;;;;;;;0.00;0.00;;;;;;;;4998665;27;45356;-73
2022/08/23 13:20:06;;;;;;;;;1.20;1.20;;;;;;;;4994277;28;45551;-74
2022/08/23 13:22:32;;;;;;;;;0.00;0.00;;;;;;;;4996284;27;45339;-74
2022/08/23 13:25:04;;;;;;;;;0.00;0.00;;;;;;;;4995780;28;46360;-73
2022/08/23 13:27:34;;;;;;;;;0.00;0.00;;;;;;;;4996876;28;45361;-73
2022/08/23 13:30:08;;;;;;;;;0.00;0.00;;;;;;;;4993530;28;45384;-73
2022/08/23 13:32:36;;;;;;;;;0.20;0.20;;;;;;;;4995080;28;47209;-73
2022/08/23 13:35:20;;;;;;;;;1.00;0.20;;;;;;;;4999356;27;45581;-74
2022/08/23 13:37:45;;;;;;;;;0.00;0.00;;;;;;;;4994351;28;45326;-73
2022/08/23 13:40:14;;;;;;;;;1.00;0.00;;;;;;;;4990373;27;45354;-74
2022/08/23 13:42:51;;;;;;;;;0.00;0.00;;;;;;;;4980004;27;45826;-74
2022/08/23 13:45:25;;;;;;;;;3.20;3.20;;;;;;;;4984927;27;45421;-73
2022/08/23 13:47:54;;;;;;;;;3.20;2.60;;;;;;;;4984734;27;45320;-74
2022/08/23 13:50:25;;;;;;;;;5.20;3.20;;;;;;;;4981578;28;45313;-74
2022/08/23 13:52:52;;;;;;;;;0.00;0.00;;;;;;;;4981471;27;45312;-73
2022/08/23 13:55:17;;;;;;;;;0.20;0.20;;;;;;;;4987338;28;46938;-73
2022/08/23 13:57:42;;;;;;;;;0.00;0.00;;;;;;;;4986465;27;46009;-73
2022/08/23 14:00:09;;;;;;;;;0.00;0.00;;;;;;;;4987261;28;45642;-74
2022/08/23 14:02:34;;;;;;;;;0.00;0.00;;;;;;;;4995501;28;45473;-72
2022/08/23 14:05:00;;;;;;;;;0.25;0.25;;;;;;;;4990702;28;46194;-74
2022/08/23 14:07:25;;;;;;;;;0.25;0.25;;;;;;;;4984501;27;45401;-75
2022/08/23 14:09:50;;;;;;;;;0.00;0.00;;;;;;;;4988934;27;45247;-76
2022/08/23 14:12:21;;;;;;;;;1.50;0.25;;;;;;;;4995071;27;45511;-76
2022/08/23 14:14:46;;;;;;;;;0.00;0.00;;;;;;;;4982250;27;45518;-76
2022/08/23 14:17:12;;;;;;;;;0.00;0.00;;;;;;;;4993765;27;45277;-76
2022/08/23 14:19:37;;;;;;;;;0.25;0.25;;;;;;;;4985950;27;45499;-75
2022/08/23 14:22:03;;;;;;;;;0.00;0.00;;;;;;;;4984723;28;45528;-75
2022/08/23 14:24:29;;;;;;;;;0.25;0.25;;;;;;;;4980727;28;45428;-75
2022/08/23 14:26:55;;;;;;;;;0.00;0.00;;;;;;;;4991309;27;45451;-75
2022/08/23 14:29:21;;;;;;;;;0.50;0.00;;;;;;;;4980488;27;45367;-74
2022/08/23 14:31:46;;;;;;;;;0.00;0.00;;;;;;;;4985684;28;45588;-74
2022/08/23 14:34:11;;;;;;;;;0.50;0.50;;;;;;;;4992062;27;46985;-75
2022/08/23 14:36:37;;;;;;;;;0.00;0.00;;;;;;;;4986756;27;45831;-75
2022/08/23 14:39:02;;;;;;;;;0.00;0.00;;;;;;;;4989726;27;45271;-73
2022/08/23 14:41:29;;;;;;;;;0.00;0.00;;;;;;;;4989814;27;45490;-75
2022/08/23 14:43:54;;;;;;;;;0.00;0.00;;;;;;;;4988000;27;45456;-75
2022/08/23 14:46:20;;;;;;;;;0.00;0.00;;;;;;;;4983981;27;45634;-74
2022/08/23 14:48:46;;;;;;;;;0.00;0.00;;;;;;;;4985317;27;45457;-74
2022/08/23 14:51:26;;;;;;;;;0.00;0.00;;;;;;;;4989989;27;45402;-74
2022/08/23 14:53:53;;;;;;;;;0.00;0.00;;;;;;;;4987326;27;47126;-74
2022/08/23 14:56:18;;;;;;;;;0.00;0.00;;;;;;;;4996556;27;45470;-74
2022/08/23 14:58:43;;;;;;;;;0.00;0.00;;;;;;;;4988391;28;45549;-74
2022/08/23 15:01:10;;;;;;;;;0.00;0.00;;;;;;;;4996725;27;45377;-74